Tiempo atmosférico en la estación meteorológica de Alpedrete, Madrid (924 m.)



Fecha
DESCASC
Temp. máxima en grados centígrados (hora)
DESCASC
Temp. mínima en grados centígrados (hora)
DESCASC
Temp. media en grados centígrados
DESCASC
Racha de viento máxima en m/sg (hora)
DESCASC
Velocidad máxima media en intervalos de 10 minutos(hora)
DESCASC
Precipitaciones diarias en mm
DESCASC
Precipitaciones de 00:00 a 06:00 en mm
DESCASC
Precipitaciones de 06:00 a 12:00 en mm
DESCASC
Precipitaciones de 12:00 a 18:00 en mm
DESCASC
Precipitaciones de 18:00 a 24:00 en mm
DESCASC
18-01-2018 16.7 (16:40) 0.3 (06:40) 8.5 2.78 (15:10) 1.39 (15:00) 0 0 0 0 0
17-01-2018 15.6 (15:30) 3.1 (23:20) 9.4 15.83 (00:50) 9.17 (00:10) 0 0 0 0 0
16-01-2018 12.7 (16:20) 7.2 (00:30) 9.9 16.11 (23:59) 9.17 (23:59) 0 0 0 0 0
15-01-2018 9.9 (14:00) -2.5 (08:20) 3.7 10.56 (20:00) 6.11 (20:00) 0 0 0 0 0
14-01-2018 6 (12:40) -0.6 (-00:0) 2.7 7.22 (13:00) 4.72 (13:00) 0.2 0.2 0 0 0
13-01-2018 5 (10:40) -0.7 (-00:0) 2.2 10 (21:40) 4.17 (21:20) 6.2 0 0 3.6 2.6
12-01-2018 10.3 (14:40) -0.2 (00:00) 5.1 10 (00:20) 5.56 (00:20) 0 0 0 0 0
11-01-2018 5.7 (16:30) 2.5 (00:00) 4.1 17.22 (15:40) 10.56 (14:20) 0 0 0 0 0
10-01-2018 5.3 (18:30) -0.2 (00:00) 2.6 15.83 (20:20) 8.89 (20:10) 4.8 0.6 2 2 0.2
09-01-2018 1.3 (14:10) -3.4 (-00:0) -1.1 2.22 (14:30) 1.11 (14:20) 0.2 0 0 0 0.2
08-01-2018 9.2 (14:30) -2.5 (-00:0) 3.3 5.28 (16:50) 2.78 (16:50) 1.2 0 1.2 0 0
07-01-2018 2.6 (07:20) -0.4 (00:00) 1.1 8.89 (00:20) 5 (00:10) 2.8 0 1 0.4 1.4
06-01-2018 4.8 (01:50) 1.8 (00:00) 3.3 11.94 (20:20) 5.28 (20:10) 0.6 0.2 0.4 0 0
05-01-2018 8.2 (12:50) 3.2 (00:00) 5.7 10.28 (23:50) 5.83 (23:59) 9.4 0 0 0.6 8.8
04-01-2018 13.3 (12:30) 6.4 (23:59) 9.9 11.11 (16:10) 6.39 (07:40) 0 0 0 0 0
03-01-2018 13.7 (16:10) 10 (00:00) 11.8 12.78 (07:10) 7.5 (05:20) 0.2 0 0.2 0 0
02-01-2018 12.1 (13:40) 7.3 (00:00) 9.7 14.44 (08:20) 8.61 (08:00) 0.6 0 0 0.2 0.4
01-01-2018 9.8 (13:20) 3.7 (00:00) 6.8 13.33 (19:10) 6.94 (06:10) 0 0 0 0 0
31-12-2017 12 (14:40) 3.2 (00:00) 7.6 14.72 (19:10) 7.78 (20:40) 1.4 0 0 0.6 0.8
30-12-2017 17.2 (15:50) 4.5 (00:00) 10.9 12.78 (11:20) 7.5 (11:30) 0 0 0 0 0
29-12-2017 13.3 (15:30) 8.6 (00:00) 11 14.44 (11:50) 7.22 (09:20) 0 0 0 0 0
28-12-2017 12.3 (15:20) 3.8 (00:00) 8.1 18.33 (18:50) 10.28 (18:50) 3.4 2.2 1 0.2 0
27-12-2017 7.9 (03:00) 3.8 (00:00) 5.9 18.61 (11:00) 10.83 (11:00) 7.8 7.2 0 0 0.6
26-12-2017 5.8 (16:20) 3.5 (00:00) 4.7 11.11 (10:20) 5.56 (11:20) 1.4 0.4 0 0.2 0.8
25-12-2017 6.7 (14:10) -0.8 (-00:0) 2.9 3.06 (14:30) 1.39 (14:30) 0.6 0 0 0.2 0.4
24-12-2017 12.9 (14:50) 0.7 (00:00) 6.8 3.61 (11:50) 2.22 (11:50) 0 0 0 0 0

Gráficas

Temp. máximas Temp. mínimas Temp. medias Precipitaciones Rachas de viento máximas Velocidades máximas media en intervalos de 10 minutos

Datos horarios

Fecha y hora oficial Temperatura (ºC) Velocidad del viento (km/h) Dirección del viento Racha (km/h) Dirección de racha Precipitación (mm) Presión (hPa) Tendencia (hPa) Humedad (%)
2018-01-22 23:00:00 5.2 3 Este 6 Norte 0 -- -- 82
2018-01-22 22:00:00 5.8 0 Calma 4 Noroeste 0 -- -- 76
2018-01-22 21:00:00 6.8 3 Norte 8 Norte 0 -- -- 69
2018-01-22 20:00:00 8.2 0 Calma 12 Noroeste 0 -- -- 67
2018-01-22 19:00:00 10.9 0 Calma 16 Noroeste 0 -- -- 55
2018-01-22 18:00:00 13.6 14 Noroeste 27 Oeste 0 -- -- 44
2018-01-22 17:00:00 14.1 21 Oeste 42 Oeste 0 -- -- 45
2018-01-22 16:00:00 14.9 17 Noroeste 28 Noroeste 0 -- -- 43
2018-01-22 15:00:00 17.6 6 Nordeste 15 Nordeste 0 -- -- 38
2018-01-22 14:00:00 16.9 2 Sur 9 Sudoeste 0 -- -- 48
2018-01-22 13:00:00 14.2 3 Sudoeste 9 Sudeste 0 -- -- 56
2018-01-22 12:00:00 13.9 3 Este 8 Sudeste 0 -- -- 55
2018-01-22 11:00:00 10.1 2 Sudoeste 9 Sur 0 -- -- 69
2018-01-22 10:00:00 7.1 2 Sur 18 Noroeste 0 -- -- 78
2018-01-22 09:00:00 3.2 0 Calma 12 Sudeste 0 -- -- 95
2018-01-22 08:00:00 2.5 2 Este 9 Noroeste 0 -- -- 95
2018-01-22 07:00:00 2.7 0 Calma 6 Noroeste 0 -- -- 91
2018-01-22 06:00:00 3.2 0 Calma 5 Noroeste 0 -- -- 90
2018-01-22 05:00:00 4.1 0 Calma 5 Norte 0 -- -- 87
2018-01-22 04:00:00 3.5 0 Calma 3 Sudoeste 0 -- -- 91
2018-01-22 03:00:00 4.2 0 Calma 8 Nordeste 0 -- -- 87
2018-01-22 02:00:00 4.4 2 Sudeste 8 Norte 0 -- -- 89
2018-01-22 01:00:00 6 4 Norte 7 Norte 0 -- -- 88
2018-01-22 00:00:00 6.5 2 Noroeste 5 Oeste 0 -- -- 83
2018-01-21 23:00:00 7.6 2 Este 11 Norte 0 -- -- 79
2018-01-21 22:00:00 7.6 5 Norte 10 Norte 0 -- -- 80
2018-01-21 21:00:00 6.6 2 Nordeste 8 Norte 0 -- -- 86
2018-01-21 20:00:00 7.6 3 Sudeste 19 Noroeste 0 -- -- 80
2018-01-21 19:00:00 7.8 8 Noroeste 32 Noroeste 0 -- -- 80
2018-01-21 18:00:00 9.9 14 Noroeste 32 Noroeste 0 -- -- 72
2018-01-21 17:00:00 11.7 15 Noroeste 35 Noroeste 0 -- -- 67
2018-01-21 16:00:00 11.9 18 Noroeste 35 Noroeste 0 -- -- 66
2018-01-21 15:00:00 11.7 19 Noroeste 39 Oeste 0 -- -- 68
2018-01-21 14:00:00 12.1 19 Noroeste 34 Noroeste 0 -- -- 66
2018-01-21 13:00:00 11.5 18 Noroeste 37 Noroeste 0 -- -- 68
2018-01-21 12:00:00 9.9 25 Oeste 41 Noroeste 0 -- -- 74
2018-01-21 11:00:00 10.5 19 Oeste 31 Noroeste 0 -- -- 69
2018-01-21 10:00:00 8.9 13 Noroeste 35 Noroeste 0 -- -- 75
2018-01-21 09:00:00 6.7 17 Noroeste 31 Noroeste 0 -- -- 87
2018-01-21 08:00:00 6.6 18 Noroeste 33 Noroeste 0 -- -- 89
2018-01-21 07:00:00 6.9 16 Noroeste 30 Noroeste 0 -- -- 87
2018-01-21 06:00:00 6.9 15 Noroeste 31 Noroeste 0 -- -- 86
2018-01-21 05:00:00 7.3 14 Oeste 31 Noroeste 0 -- -- 84
2018-01-21 04:00:00 7.2 15 Noroeste 36 Noroeste 0 -- -- 84
2018-01-21 03:00:00 7.6 22 Oeste 37 Noroeste 0 -- -- 81
2018-01-21 02:00:00 8.2 14 Oeste 28 Oeste 0 -- -- 78
2018-01-21 01:00:00 8.6 6 Noroeste 44 Noroeste 0 -- -- 75
2018-01-21 00:00:00 8.1 16 Noroeste 54 Noroeste 0 -- -- 78
2018-01-20 23:00:00 8.8 22 Noroeste 50 Noroeste 0 -- -- 71
2018-01-20 22:00:00 8.9 23 Noroeste 58 Noroeste 0 -- -- 70
2018-01-20 21:00:00 9.2 30 Noroeste 55 Noroeste 0 -- -- 68
2018-01-20 20:00:00 9.5 29 Noroeste 58 Noroeste 0 -- -- 64
2018-01-20 19:00:00 10.2 33 Noroeste 57 Noroeste 0 -- -- 59
2018-01-20 18:00:00 11.5 27 Noroeste 49 Noroeste 0 -- -- 54
2018-01-20 17:00:00 12.6 28 Noroeste 49 Noroeste 0 -- -- 47
2018-01-20 16:00:00 11.5 23 Noroeste 43 Noroeste 0 -- -- 45
2018-01-20 15:00:00 11 25 Noroeste 46 Noroeste 0 -- -- 48
2018-01-20 14:00:00 10.2 25 Noroeste 41 Noroeste 0 -- -- 49
2018-01-20 13:00:00 9.5 26 Noroeste 45 Noroeste 0 -- -- 37
2018-01-20 12:00:00 8.8 22 Noroeste 39 Noroeste 0 -- -- 32
2018-01-20 11:00:00 8.3 14 Noroeste 32 Noroeste 0 -- -- 38
2018-01-20 10:00:00 7.8 17 Noroeste 29 Oeste 0 -- -- 45
2018-01-20 09:00:00 6.6 17 Noroeste 26 Oeste 0 -- -- 54
2018-01-20 08:00:00 6.7 17 Noroeste 28 Noroeste 0 -- -- 65
2018-01-20 07:00:00 6.5 17 Noroeste 36 Noroeste 0 -- -- 72
2018-01-20 06:00:00 6.4 23 Noroeste 39 Noroeste 0 -- -- 75
2018-01-20 05:00:00 6.8 23 Noroeste 39 Noroeste 0 -- -- 75
2018-01-20 04:00:00 6.8 21 Noroeste 37 Noroeste 0 -- -- 77
2018-01-20 03:00:00 6.9 13 Noroeste 31 Noroeste 0 -- -- 77
2018-01-20 02:00:00 6.9 14 Noroeste 29 Noroeste 0 -- -- 75
2018-01-20 01:00:00 6.6 21 Noroeste 39 Noroeste 0 -- -- 76
2018-01-20 00:00:00 7 21 Noroeste 34 Noroeste 0 -- -- 75
2018-01-19 23:00:00 5.9 14 Noroeste 27 Norte 0 -- -- 79
2018-01-19 22:00:00 7.3 14 Noroeste 24 Noroeste 0 -- -- 75
2018-01-19 21:00:00 7.3 15 Noroeste 27 Noroeste 0 -- -- 74
2018-01-19 20:00:00 8.1 8 Oeste 28 Norte 0 -- -- 67
2018-01-19 19:00:00 9 14 Noroeste 42 Noroeste 0 -- -- 61
2018-01-19 18:00:00 11.3 9 Noroeste 37 Norte 0 -- -- 46
2018-01-19 17:00:00 13.1 20 Norte 35 Norte 0 -- -- 38
2018-01-19 16:00:00 13.7 15 Norte 33 Norte 0 -- -- 40
2018-01-19 15:00:00 14.7 8 Noroeste 26 Noroeste 0 -- -- 42
2018-01-19 14:00:00 13.9 11 Norte 36 Noroeste 0 -- -- 44
2018-01-19 13:00:00 12.7 16 Oeste 30 Oeste 0 -- -- 46
2018-01-19 12:00:00 11.8 17 Oeste 30 Oeste 0 -- -- 46
2018-01-19 11:00:00 9.6 19 Noroeste 30 Oeste 0 -- -- 55
2018-01-19 10:00:00 9.1 7 Noroeste 17 Noroeste 0 -- -- 56
2018-01-19 09:00:00 4.4 3 Sudeste 10 Este 0 -- -- 70
2018-01-19 08:00:00 4.8 3 Nordeste 10 Noroeste 0 -- -- 66
2018-01-19 07:00:00 4.8 2 Norte 10 Noroeste 0 -- -- 68
2018-01-19 06:00:00 5.7 4 Norte 8 Norte 0 -- -- 65
2018-01-19 05:00:00 4.5 0 Calma 9 Este 0 -- -- 68
2018-01-19 04:00:00 6 3 Norte 12 Norte 0 -- -- 67
2018-01-19 03:00:00 6.4 3 Norte 9 Noroeste 0 -- -- 59
2018-01-19 02:00:00 5.3 0 Calma 6 Norte 0 -- -- 64
2018-01-19 01:00:00 7.9 3 Norte 9 Norte 0 -- -- 52
2018-01-19 00:00:00 5.5 0 Calma 5 Norte 0 -- -- 65
2018-01-18 23:00:00 4.8 0 Calma 6 Norte 0 -- -- 69
2018-01-18 22:00:00 5.7 0 Calma 4 Nordeste 0 -- -- 68
2018-01-18 21:00:00 6 0 Calma 8 Sudeste 0 -- -- 67
2018-01-18 20:00:00 7 2 Este 6 Noroeste 0 -- -- 64
2018-01-18 19:00:00 8.7 0 Calma 4 Sudoeste 0 -- -- 60
2018-01-18 18:00:00 13.8 2 Oeste 6 Sudeste 0 -- -- 44
2018-01-18 17:00:00 16.1 2 Sur 10 Sudeste 0 -- -- 36
2018-01-18 16:00:00 15.9 4 Sur 10 Sudoeste 0 -- -- 33
2018-01-18 15:00:00 15.5 5 Sur 10 Sur 0 -- -- 35
2018-01-18 14:00:00 16.2 2 Sur 8 Sur 0 -- -- 33
2018-01-18 13:00:00 14.7 3 Sudoeste 9 Oeste 0 -- -- 38
2018-01-18 12:00:00 12.6 2 Sur 8 Sudoeste 0 -- -- 44
2018-01-18 11:00:00 12.1 0 Calma 3 Sudoeste 0 -- -- 47
2018-01-18 10:00:00 8.9 0 Calma 4 Norte 0 -- -- 59
2018-01-18 09:00:00 2 0 Calma 2 Norte 0 -- -- 85
2018-01-18 08:00:00 1.1 0 Calma 6 Norte 0 -- -- 89
2018-01-18 07:00:00 1.2 3 Norte 6 Norte 0 -- -- 92
2018-01-18 06:00:00 0.7 0 Calma 6 Norte 0 -- -- 92
2018-01-18 05:00:00 0.5 0 Calma 3 Oeste 0 -- -- 90
2018-01-18 04:00:00 1.5 0 Calma 2 Norte 0 -- -- 89
2018-01-18 03:00:00 1.2 0 Calma 3 Norte 0 -- -- 89
2018-01-18 02:00:00 1.9 0 Calma 7 Norte 0 -- -- 84
2018-01-18 01:00:00 2.8 0 Calma 8 Norte 0 -- -- 82
2018-01-18 00:00:00 3.2 0 Calma 7 Norte 0 -- -- 82
2018-01-17 23:00:00 3.3 0 Calma 5 Este 0 -- -- 83
2018-01-17 22:00:00 4.2 3 Sudeste 8 Norte 0 -- -- 81
2018-01-17 21:00:00 4.7 0 Calma 6 Norte 0 -- -- 78
2018-01-17 20:00:00 5.8 0 Calma 8 Noroeste 0 -- -- 71
2018-01-17 19:00:00 7.9 6 Noroeste 13 Noroeste 0 -- -- 59
2018-01-17 18:00:00 10.7 7 Noroeste 17 Oeste 0 -- -- 49
2018-01-17 17:00:00 13 6 Oeste 31 Oeste 0 -- -- 41
2018-01-17 16:00:00 12.8 13 Oeste 36 Oeste 0 -- -- 44
2018-01-17 15:00:00 12.6 17 Oeste 35 Oeste 0 -- -- 43
2018-01-17 14:00:00 12.6 17 Noroeste 36 Oeste 0 -- -- 42
2018-01-17 13:00:00 11.9 15 Oeste 28 Oeste 0 -- -- 48
2018-01-17 12:00:00 13.6 9 Este 26 Oeste 0 -- -- 45
2018-01-17 11:00:00 12.4 8 Noroeste 21 Noroeste 0 -- -- 45
2018-01-17 10:00:00 11.1 6 Noroeste 23 Noroeste 0 -- -- 50
2018-01-17 09:00:00 8.9 12 Noroeste 28 Oeste 0 -- -- 59
2018-01-17 08:00:00 9.1 13 Noroeste 42 Noroeste 0 -- -- 60
2018-01-17 07:00:00 8.7 12 Noroeste 45 Noroeste 0 -- -- 67
2018-01-17 06:00:00 8.6 22 Noroeste 48 Noroeste 0 -- -- 73
2018-01-17 05:00:00 8.7 28 Noroeste 57 Noroeste 0 -- -- 75
2018-01-17 04:00:00 8.7 28 Noroeste 53 Noroeste 0 -- -- 77
2018-01-17 03:00:00 8.6 22 Noroeste 47 Noroeste 0 -- -- 78
2018-01-17 02:00:00 9 20 Noroeste 53 Noroeste 0 -- -- 76
2018-01-17 01:00:00 9.3 28 Noroeste 57 Noroeste 0 -- -- 74
2018-01-17 00:00:00 9.5 33 Noroeste 58 Noroeste 0 -- -- 73
2018-01-16 23:00:00 9.5 11 Noroeste 41 Noroeste 0 -- -- 77
2018-01-16 22:00:00 9.5 18 Noroeste 43 Noroeste 0 -- -- 79
2018-01-16 21:00:00 9.4 16 Noroeste 46 Noroeste 0 -- -- 79
2018-01-16 20:00:00 9.8 18 Noroeste 39 Oeste 0 -- -- 76
2018-01-16 19:00:00 9.7 4 Este 16 Sudeste 0 -- -- 76
2018-01-16 18:00:00 10.7 7 Oeste 31 Noroeste 0 -- -- 77
2018-01-16 17:00:00 12.5 9 Oeste 31 Noroeste 0 -- -- 69
2018-01-16 16:00:00 12.4 9 Oeste 30 Noroeste 0 -- -- 71
2018-01-16 15:00:00 10.3 11 Oeste 32 Oeste 0 -- -- 80
2018-01-16 14:00:00 11.2 12 Oeste 33 Oeste 0 -- -- 75
2018-01-16 13:00:00 9.9 18 Oeste 35 Noroeste 0 -- -- 80
2018-01-16 12:00:00 9 13 Oeste 36 Oeste 0 -- -- 83
2018-01-16 11:00:00 9.2 15 Noroeste 40 Oeste 0 -- -- 81
2018-01-16 10:00:00 8.7 5 Oeste 26 Oeste 0 -- -- 83
2018-01-16 09:00:00 7.4 12 Noroeste 41 Noroeste 0 -- -- 88
2018-01-16 08:00:00 7.7 13 Noroeste 31 Noroeste 0 -- -- 85
2018-01-16 07:00:00 7.4 5 Noroeste 25 Oeste 0 -- -- 83
2018-01-16 06:00:00 7.8 7 Oeste 38 Norte 0 -- -- 80
2018-01-16 05:00:00 7.6 9 Noroeste 29 Norte 0 -- -- 80
2018-01-16 04:00:00 7.4 4 Sudoeste 27 Noroeste 0 -- -- 82
2018-01-16 03:00:00 7.8 9 Noroeste 31 Noroeste 0 -- -- 73
2018-01-16 02:00:00 7.3 4 Oeste 14 Oeste 0 -- -- 64
2018-01-16 01:00:00 7.3 12 Oeste 21 Noroeste 0 -- -- 47
2018-01-16 00:00:00 7.5 7 Oeste 26 Oeste 0 -- -- 41
2018-01-15 23:00:00 6.9 11 Oeste 26 Oeste 0 -- -- 44
2018-01-15 22:00:00 6.6 13 Noroeste 28 Noroeste 0 -- -- 53
2018-01-15 21:00:00 6.3 14 Noroeste 28 Oeste 0 -- -- 56
2018-01-15 20:00:00 6.6 22 Oeste 38 Noroeste 0 -- -- 56
2018-01-15 19:00:00 5.9 15 Oeste 24 Noroeste 0 -- -- 58
2018-01-15 18:00:00 6.4 12 Oeste 30 Oeste 0 -- -- 56
2018-01-15 17:00:00 6.8 17 Noroeste 30 Noroeste 0 -- -- 54
2018-01-15 16:00:00 8.3 15 Oeste 24 Oeste 0 -- -- 45
2018-01-15 15:00:00 8.5 15 Oeste 24 Oeste 0 -- -- 47
2018-01-15 14:00:00 9.9 3 Sur 11 Sudoeste 0 -- -- 52
2018-01-15 13:00:00 7.8 5 Sur 14 Sudeste 0 -- -- 59
2018-01-15 12:00:00 8.6 4 Sur 9 Sur 0 -- -- 55
2018-01-15 11:00:00 7.1 0 Calma 5 Sudeste 0 -- -- 58
2018-01-15 10:00:00 3.8 0 Calma 3 Norte 0 -- -- 69
2018-01-15 09:00:00 -1.1 2 Noroeste 4 Noroeste 0 -- -- 89
2018-01-15 08:00:00 -2.2 0 Calma 3 Noroeste 0 -- -- 88
2018-01-15 07:00:00 -1.7 0 Calma 8 Noroeste 0 -- -- 85
2018-01-15 06:00:00 -1.7 3 Noroeste 8 Noroeste 0 -- -- 87
2018-01-15 05:00:00 -0.5 3 Nordeste 10 Noroeste 0 -- -- 81
2018-01-15 04:00:00 -1.2 3 Norte 6 Norte 0 -- -- 87
2018-01-15 03:00:00 -1.4 2 Norte 5 Norte 0 -- -- 88
2018-01-15 02:00:00 -1.1 2 Noroeste 6 Noroeste 0 -- -- 88
2018-01-15 01:00:00 -0.6 0 Calma 8 Norte 0 -- -- 85
2018-01-15 00:00:00 -0.1 3 Norte 10 Noroeste 0 -- -- 80
2018-01-14 23:00:00 0.1 0 Calma 6 Norte 0 -- -- 81
2018-01-14 22:00:00 -0.1 0 Calma 8 Noroeste 0 -- -- 86
2018-01-14 21:00:00 0.1 2 Noroeste 6 Noroeste 0 -- -- 89
2018-01-14 20:00:00 0.4 0 Calma 4 Norte 0 -- -- 91
2018-01-14 19:00:00 1.6 2 Sudeste 6 Este 0 -- -- 86
2018-01-14 18:00:00 3.9 4 Este 11 Este 0 -- -- 78
2018-01-14 17:00:00 5 2 Sudeste 9 Sudeste 0 -- -- 72
2018-01-14 16:00:00 4.1 4 Sudeste 16 Este 0 -- -- 79
2018-01-14 15:00:00 3.8 8 Este 16 Este 0 -- -- 81
2018-01-14 14:00:00 3.9 7 Este 24 Oeste 0 -- -- 78
2018-01-14 13:00:00 5.3 17 Oeste 26 Noroeste 0 -- -- 67
2018-01-14 12:00:00 5 13 Noroeste 23 Oeste 0 -- -- 70
2018-01-14 11:00:00 4.3 10 Noroeste 22 Noroeste 0 -- -- 74
2018-01-14 10:00:00 4.3 4 Noroeste 12 Oeste 0 -- -- 74
2018-01-14 09:00:00 1.3 2 Este 23 Noroeste 0 -- -- 86
2018-01-14 08:00:00 1.5 3 Noroeste 21 Oeste 0 -- -- 87
2018-01-14 07:00:00 2 12 Oeste 19 Oeste 0 -- -- 85
2018-01-14 06:00:00 1.5 0 Calma 18 Noroeste 0 -- -- 86
2018-01-14 05:00:00 1.9 8 Noroeste 25 Noroeste 0 -- -- 84
2018-01-14 04:00:00 1.9 6 Noroeste 14 Noroeste 0 -- -- 90
2018-01-14 03:00:00 1.8 0 Calma 12 Oeste 0 -- -- 88
2018-01-14 02:00:00 2.4 7 Noroeste 20 Noroeste 0 -- -- 85
2018-01-14 01:00:00 2.8 9 Noroeste 21 Noroeste 0.2 -- -- 85
2018-01-14 00:00:00 2.1 6 Oeste 19 Noroeste 0.2 -- -- 94
2018-01-13 23:00:00 2.6 4 Noroeste 28 Oeste 0.8 -- -- 89
2018-01-13 22:00:00 3.8 10 Oeste 36 Oeste 1 -- -- 80
2018-01-13 21:00:00 3.2 14 Noroeste 29 Oeste 0.2 -- -- 86
2018-01-13 20:00:00 0 2 Sudoeste 5 Sur 0.2 -- -- 98
2018-01-13 19:00:00 0.2 0 Calma 5 Este 0.2 -- -- 97
2018-01-13 18:00:00 0.5 0 Calma 3 Sudeste 0.4 -- -- 97
2018-01-13 17:00:00 0.8 0 Calma 3 Sudoeste 0.6 -- -- 95
2018-01-13 16:00:00 0.6 0 Calma 2 Norte 0.4 -- -- 96
2018-01-13 15:00:00 0.6 0 Calma 3 Nordeste 0.6 -- -- 95
2018-01-13 14:00:00 0.6 0 Calma 5 Norte 0.8 -- -- 94
2018-01-13 13:00:00 0.8 4 Noroeste 7 Noroeste 0.8 -- -- 92
2018-01-13 12:00:00 2.9 3 Oeste 6 Sur 0 -- -- 79
2018-01-13 11:00:00 4.7 0 Calma 4 Sur 0 -- -- 72
2018-01-13 10:00:00 1.4 0 Calma 2 Norte 0 -- -- 89
2018-01-13 09:00:00 -0.6 0 Calma 3 Norte 0 -- -- 92
2018-01-13 08:00:00 -0.5 0 Calma 5 Nordeste 0 -- -- 93
2018-01-13 07:00:00 -0.4 0 Calma 5 Norte 0 -- -- 93
2018-01-13 06:00:00 -0.5 0 Calma 2 Nordeste 0 -- -- 92
2018-01-13 05:00:00 -0.7 0 Calma 4 Oeste 0 -- -- 91
2018-01-13 04:00:00 0.2 2 Noroeste 4 Norte 0 -- -- 90
2018-01-13 03:00:00 0.4 0 Calma 4 Este 0 -- -- 90
2018-01-13 02:00:00 0.6 3 Norte 6 Norte 0 -- -- 89
2018-01-13 01:00:00 0.3 3 Norte 6 Norte 0 -- -- 89
2018-01-13 00:00:00 0.2 0 Calma 4 Este 0 -- -- 88
2018-01-12 23:00:00 1.2 0 Calma 5 Norte 0 -- -- 84
2018-01-12 22:00:00 2.4 3 Norte 9 Oeste 0 -- -- 82
2018-01-12 21:00:00 2.8 0 Calma 4 Nordeste 0 -- -- 81
2018-01-12 20:00:00 3.9 0 Calma 5 Este 0 -- -- 75
2018-01-12 19:00:00 5 0 Calma 9 Sur 0 -- -- 69
2018-01-12 18:00:00 5.7 3 Sur 10 Sur 0 -- -- 66
2018-01-12 17:00:00 7.4 5 Sur 12 Sur 0 -- -- 61
2018-01-12 16:00:00 7.9 4 Sur 13 Sur 0 -- -- 58
2018-01-12 15:00:00 9.9 3 Sudoeste 9 Sudoeste 0 -- -- 47
2018-01-12 14:00:00 9.7 3 Oeste 10 Sur 0 -- -- 47
2018-01-12 13:00:00 8.9 3 Sudoeste 11 Sudoeste 0 -- -- 49
2018-01-12 12:00:00 9.6 2 Sudeste 7 Sur 0 -- -- 49
2018-01-12 11:00:00 7.9 0 Calma 5 Este 0 -- -- 54
2018-01-12 10:00:00 3.5 3 Sudeste 12 Norte 0 -- -- 67
2018-01-12 09:00:00 0.3 3 Noroeste 13 Noroeste 0 -- -- 74
2018-01-12 08:00:00 0.9 6 Norte 15 Norte 0 -- -- 74
2018-01-12 07:00:00 0.2 0 Calma 9 Norte 0 -- -- 80
2018-01-12 06:00:00 1.8 4 Norte 27 Norte 0 -- -- 78
2018-01-12 05:00:00 2.1 13 Noroeste 30 Noroeste 0 -- -- 80
2018-01-12 04:00:00 2.6 13 Noroeste 29 Noroeste 0 -- -- 75
2018-01-12 03:00:00 2.5 17 Noroeste 31 Oeste 0 -- -- 75
2018-01-12 02:00:00 2.3 15 Oeste 31 Oeste 0 -- -- 80
2018-01-12 01:00:00 2.5 14 Oeste 36 Oeste 0 -- -- 78
2018-01-12 00:00:00 2.7 16 Noroeste 40 Oeste 0 -- -- 77
2018-01-11 23:00:00 3.1 21 Noroeste 44 Noroeste 0 -- -- 75
2018-01-11 22:00:00 3.4 14 Noroeste 39 Noroeste 0 -- -- 73
2018-01-11 21:00:00 3.4 8 Noroeste 22 Noroeste 0 -- -- 72
2018-01-11 20:00:00 3.6 4 Sur 32 Oeste 0 -- -- 70
2018-01-11 19:00:00 3.8 16 Noroeste 47 Noroeste 0 -- -- 71
2018-01-11 18:00:00 4.2 23 Noroeste 48 Noroeste 0 -- -- 66
2018-01-11 17:00:00 5.5 19 Noroeste 52 Oeste 0 -- -- 62
2018-01-11 16:00:00 5.5 30 Noroeste 62 Oeste 0 -- -- 59
2018-01-11 15:00:00 5.4 33 Noroeste 61 Noroeste 0 -- -- 57
2018-01-11 14:00:00 5.2 32 Noroeste 55 Norte 0 -- -- 62
2018-01-11 13:00:00 4.8 24 Noroeste 45 Noroeste 0 -- -- 66
2018-01-11 12:00:00 4.1 25 Noroeste 44 Noroeste 0 -- -- 68
2018-01-11 11:00:00 3.6 17 Noroeste 42 Noroeste 0 -- -- 74
2018-01-11 10:00:00 3.7 18 Noroeste 44 Norte 0 -- -- 75
2018-01-11 09:00:00 3.4 20 Noroeste 44 Noroeste 0 -- -- 74
2018-01-11 08:00:00 3.4 17 Noroeste 52 Noroeste 0 -- -- 75
2018-01-11 07:00:00 3.6 26 Noroeste 46 Noroeste 0 -- -- 71
2018-01-11 06:00:00 3.4 24 Oeste 49 Noroeste 0 -- -- 77
2018-01-11 05:00:00 3.1 17 Noroeste 42 Noroeste 0 -- -- 83
2018-01-11 04:00:00 3.9 21 Noroeste 44 Noroeste 0 -- -- 74
2018-01-11 03:00:00 3.3 17 Noroeste 35 Noroeste 0 -- -- 74
2018-01-11 02:00:00 3.1 16 Oeste 36 Noroeste 0 -- -- 72
2018-01-11 01:00:00 2.8 20 Noroeste 44 Noroeste 0 -- -- 75
2018-01-11 00:00:00 2.9 20 Noroeste 41 Noroeste 0 -- -- 76
2018-01-10 23:00:00 3.3 26 Noroeste 47 Noroeste 0 -- -- 74
2018-01-10 22:00:00 3.6 24 Noroeste 43 Noroeste 0 -- -- 71
2018-01-10 21:00:00 4 26 Noroeste 57 Oeste 0 -- -- 75
2018-01-10 20:00:00 4.6 24 Noroeste 54 Oeste 0 -- -- 77
2018-01-10 19:00:00 4.6 18 Oeste 43 Oeste 0.2 -- -- 75
2018-01-10 18:00:00 4.5 5 Oeste 14 Noroeste 0 -- -- 98
2018-01-10 17:00:00 4.2 4 Sur 10 Sur 0 -- -- 98
2018-01-10 16:00:00 3.9 3 Sudoeste 12 Sur 0.2 -- -- 99
2018-01-10 15:00:00 3.3 0 Calma 6 Sudeste 0.2 -- -- 100
2018-01-10 14:00:00 2.8 4 Sudeste 10 Sur 0.6 -- -- 99
2018-01-10 13:00:00 2.9 5 Sur 14 Sur 1 -- -- 99
2018-01-10 12:00:00 2.3 3 Sur 14 Sur 1.2 -- -- 99
2018-01-10 11:00:00 1 0 Calma 11 Sur 0.2 -- -- 99
2018-01-10 10:00:00 0.1 3 Sudoeste 11 Oeste 0.2 -- -- 99
2018-01-10 09:00:00 1.3 4 Oeste 19 Oeste 0 -- -- 100
2018-01-10 08:00:00 0.3 0 Calma 4 Este 0.2 -- -- 99
2018-01-10 07:00:00 0.3 0 Calma 3 Norte 0.2 -- -- 99
2018-01-10 06:00:00 0.4 0 Calma 4 Sur 0 -- -- 99
2018-01-10 05:00:00 0 2 Sudeste 5 Noroeste 0 -- -- 98
2018-01-10 04:00:00 0 3 Noroeste 6 Norte 0 -- -- 99
2018-01-10 03:00:00 0.3 0 Calma 4 Este 0.2 -- -- 98
2018-01-10 02:00:00 0.4 0 Calma 2 Noroeste 0.2 -- -- 98
2018-01-10 01:00:00 0.2 0 Calma 4 Este 0.2 -- -- 98
2018-01-10 00:00:00 0.3 2 Noroeste 5 Noroeste 0.2 -- -- 98
2018-01-09 23:00:00 0.3 0 Calma 3 Noroeste 0 -- -- 97
2018-01-09 22:00:00 0.4 0 Calma 2 Norte 0 -- -- 97
2018-01-09 21:00:00 0.3 0 Calma 2 Sudeste 0 -- -- 97
2018-01-09 20:00:00 0.2 0 Calma 2 Sudeste 0 -- -- 97
2018-01-09 19:00:00 0.1 0 Calma 2 Nordeste 0 -- -- 96
2018-01-09 18:00:00 0.2 0 Calma 2 Sur 0 -- -- 96
2018-01-09 17:00:00 0.3 0 Calma 3 Nordeste 0 -- -- 94
2018-01-09 16:00:00 0.7 0 Calma 5 Sur 0 -- -- 90
2018-01-09 15:00:00 1.3 3 Sudeste 8 Sudeste 0 -- -- 87
2018-01-09 14:00:00 1.1 2 Sudeste 5 Sur 0 -- -- 88
2018-01-09 13:00:00 0.8 0 Calma 3 Oeste 0 -- -- 87
2018-01-09 12:00:00 0.4 0 Calma 4 Sudeste 0 -- -- 86
2018-01-09 11:00:00 -0.5 0 Calma 2 Este 0 -- -- 89
2018-01-09 10:00:00 -1.7 0 Calma 2 Noroeste 0 -- -- 92
2018-01-09 09:00:00 -2.7 0 Calma 3 Este 0 -- -- 93
2018-01-09 08:00:00 -3.4 0 Calma 3 Nordeste 0 -- -- 93
2018-01-09 07:00:00 -3.2 2 Norte 3 Norte 0 -- -- 94
2018-01-09 06:00:00 -3.2 0 Calma 5 Nordeste 0 -- -- 94
2018-01-09 05:00:00 -3.1 0 Calma 3 Sudoeste 0 -- -- 93
2018-01-09 04:00:00 -2.4 2 Norte 5 Norte 0 -- -- 95
2018-01-09 03:00:00 -2.6 3 Este 5 Este 0 -- -- 93
2018-01-09 02:00:00 -2.3 0 Calma 2 Noroeste 0 -- -- 93
2018-01-09 01:00:00 -2.1 0 Calma 3 Norte 0 -- -- 93
2018-01-09 00:00:00 -1.9 0 Calma 2 Norte 0 -- -- 92
2018-01-08 23:00:00 -1.4 0 Calma 4 Noroeste 0 -- -- 90
2018-01-08 22:00:00 -1 0 Calma 6 Noroeste 0 -- -- 89
2018-01-08 21:00:00 0 0 Calma 5 Norte 0 -- -- 85
2018-01-08 20:00:00 0.9 4 Norte 10 Noroeste 0 -- -- 81
2018-01-08 19:00:00 1.7 0 Calma 13 Noroeste 0 -- -- 72
2018-01-08 18:00:00 4.6 3 Oeste 12 Noroeste 0 -- -- 60
2018-01-08 17:00:00 5.8 7 Noroeste 19 Oeste 0 -- -- 54
2018-01-08 16:00:00 8 4 Noroeste 12 Oeste 0 -- -- 47
2018-01-08 15:00:00 6.2 6 Oeste 16 Noroeste 0 -- -- 55
2018-01-08 14:00:00 7.6 4 Este 15 Este 0 -- -- 52
2018-01-08 13:00:00 6.1 7 Este 16 Este 0 -- -- 57
2018-01-08 12:00:00 6.1 5 Este 10 Este 0.2 -- -- 60
2018-01-08 11:00:00 7.4 0 Calma 3 Oeste 0.8 -- -- 59
2018-01-08 10:00:00 4.2 0 Calma 5 Sudeste 0 -- -- 70
2018-01-08 09:00:00 -2 3 Sudeste 5 Sudeste 0 -- -- 91
2018-01-08 08:00:00 -1.5 0 Calma 7 Sudeste 0 -- -- 88
2018-01-08 07:00:00 -2.2 3 Sudeste 6 Sudeste 0.2 -- -- 90
2018-01-08 06:00:00 -1.4 3 Sudeste 6 Sudeste 0 -- -- 88
2018-01-08 05:00:00 -1.4 0 Calma 5 Sudeste 0 -- -- 91
2018-01-08 04:00:00 -1.8 0 Calma 4 Sudeste 0 -- -- 93
2018-01-08 03:00:00 -1.4 0 Calma 6 Sudeste 0 -- -- 90
2018-01-08 02:00:00 -1.6 0 Calma 5 Este 0 -- -- 92
2018-01-08 01:00:00 -0.3 3 Este 10 Este 0 -- -- 88
2018-01-08 00:00:00 -0.4 3 Este 15 Este 0 -- -- 93
2018-01-07 23:00:00 0.8 8 Este 18 Este 0.2 -- -- 89
2018-01-07 22:00:00 0.9 12 Este 23 Este 0.6 -- -- 93
2018-01-07 21:00:00 0.7 15 Este 27 Este 0.4 -- -- 94
2018-01-07 20:00:00 0.3 8 Este 26 Sudeste 0 -- -- 97
2018-01-07 19:00:00 0.3 7 Este 18 Este 0.2 -- -- 96
2018-01-07 18:00:00 0.3 8 Este 17 Este 0.2 -- -- 96
2018-01-07 17:00:00 0.8 8 Este 22 Este 0.2 -- -- 93
2018-01-07 16:00:00 1.2 9 Este 25 Este 0 -- -- 91
2018-01-07 15:00:00 2.1 10 Este 23 Este 0 -- -- 84
2018-01-07 14:00:00 1.8 9 Este 19 Este 0 -- -- 86
2018-01-07 13:00:00 1.9 10 Este 19 Este 0 -- -- 86
2018-01-07 12:00:00 1.6 8 Este 17 Este 0.4 -- -- 90
2018-01-07 11:00:00 1.2 2 Noroeste 6 Noroeste 0.4 -- -- 93
2018-01-07 10:00:00 0.4 0 Calma 12 Este 0.2 -- -- 92
2018-01-07 09:00:00 1.2 3 Este 17 Norte 0 -- -- 85
2018-01-07 08:00:00 2.4 6 Noroeste 22 Norte 0 -- -- 70
2018-01-07 07:00:00 2.5 10 Noroeste 26 Noroeste 0 -- -- 67
2018-01-07 06:00:00 1.9 8 Noroeste 25 Noroeste 0 -- -- 71
2018-01-07 05:00:00 1.2 11 Noroeste 21 Noroeste 0 -- -- 79
2018-01-07 04:00:00 2.1 6 Noroeste 30 Norte 0 -- -- 71
2018-01-07 03:00:00 2.4 8 Noroeste 27 Noroeste 0 -- -- 68
2018-01-07 02:00:00 2.3 10 Noroeste 26 Norte 0 -- -- 68
2018-01-07 01:00:00 1.8 13 Noroeste 32 Noroeste 0 -- -- 74
2018-01-07 00:00:00 2.1 16 Noroeste 29 Noroeste 0 -- -- 71
2018-01-06 23:00:00 2.1 13 Noroeste 29 Noroeste 0 -- -- 72
2018-01-06 22:00:00 2.2 15 Noroeste 37 Noroeste 0 -- -- 71
2018-01-06 21:00:00 2.3 19 Noroeste 43 Noroeste 0 -- -- 70
2018-01-06 20:00:00 2.1 16 Noroeste 35 Noroeste 0 -- -- 72
2018-01-06 19:00:00 2.1 13 Noroeste 30 Oeste 0 -- -- 74
2018-01-06 18:00:00 2.3 15 Noroeste 36 Noroeste 0 -- -- 72
2018-01-06 17:00:00 2.5 14 Noroeste 32 Noroeste 0 -- -- 73
2018-01-06 16:00:00 3.6 12 Noroeste 30 Noroeste 0 -- -- 67
2018-01-06 15:00:00 3.6 9 Noroeste 25 Noroeste 0 -- -- 69
2018-01-06 14:00:00 3.8 12 Noroeste 28 Noroeste 0 -- -- 70
2018-01-06 13:00:00 3.9 9 Noroeste 27 Noroeste 0 -- -- 73
2018-01-06 12:00:00 3.9 6 Noroeste 23 Noroeste 0 -- -- 74
2018-01-06 11:00:00 3.2 6 Noroeste 15 Noroeste 0 -- -- 88
2018-01-06 10:00:00 2.3 0 Calma 8 Este 0 -- -- 94
2018-01-06 09:00:00 2.3 4 Este 9 Sudeste 0.2 -- -- 94
2018-01-06 08:00:00 2.6 0 Calma 6 Noroeste 0 -- -- 94
2018-01-06 07:00:00 2.9 3 Sudoeste 5 Sur 0.2 -- -- 96
2018-01-06 06:00:00 2.9 3 Sudeste 9 Sur 0 -- -- 95
2018-01-06 05:00:00 3.1 3 Sudeste 5 Sudeste 0 -- -- 93
2018-01-06 04:00:00 3.6 0 Calma 15 Noroeste 0.2 -- -- 87
2018-01-06 03:00:00 3.9 8 Noroeste 27 Oeste 0 -- -- 80
2018-01-06 02:00:00 4.7 7 Noroeste 20 Noroeste 0 -- -- 76
2018-01-06 01:00:00 3.9 10 Noroeste 28 Oeste 0 -- -- 84
2018-01-06 00:00:00 3.2 21 Noroeste 37 Noroeste 0.2 -- -- 86
2018-01-05 23:00:00 3.8 18 Noroeste 29 Oeste 2.2 -- -- 85
2018-01-05 22:00:00 4.2 13 Noroeste 30 Oeste 2.2 -- -- 96
2018-01-05 21:00:00 6.2 0 Calma 8 Sur 1 -- -- 98
2018-01-05 20:00:00 6.4 5 Sur 13 Sur 1.6 -- -- 98
2018-01-05 19:00:00 6.5 5 Sur 17 Sur 1.6 -- -- 97
2018-01-05 18:00:00 6.6 6 Sur 18 Sur 0.2 -- -- 96
2018-01-05 17:00:00 6.7 8 Sur 23 Sur 0.4 -- -- 95
2018-01-05 16:00:00 7.3 8 Sudoeste 20 Sudoeste 0 -- -- 91
2018-01-05 15:00:00 7.5 10 Sudoeste 22 Sur 0 -- -- 88
2018-01-05 14:00:00 7.5 6 Sur 22 Sur 0 -- -- 88
2018-01-05 13:00:00 8.2 9 Sur 21 Sur 0 -- -- 84
2018-01-05 12:00:00 7.2 6 Sudoeste 14 Sudoeste 0 -- -- 88
2018-01-05 11:00:00 6.5 3 Oeste 8 Oeste 0 -- -- 91
2018-01-05 10:00:00 6.1 0 Calma 3 Sur 0 -- -- 93
2018-01-05 09:00:00 5.7 0 Calma 6 Este 0 -- -- 95
2018-01-05 08:00:00 5.2 0 Calma 3 Este 0 -- -- 96
2018-01-05 07:00:00 4.5 0 Calma 3 Sudeste 0 -- -- 96
2018-01-05 06:00:00 4.8 0 Calma 3 Sudoeste 0 -- -- 96
2018-01-05 05:00:00 5.5 0 Calma 4 Sudoeste 0 -- -- 96
2018-01-05 04:00:00 6.3 0 Calma 7 Sur 0 -- -- 96
2018-01-05 03:00:00 6.1 3 Sudeste 9 Este 0 -- -- 95
2018-01-05 02:00:00 5.1 0 Calma 5 Noroeste 0 -- -- 93
2018-01-05 01:00:00 5.5 0 Calma 5 Sudeste 0 -- -- 87
2018-01-05 00:00:00 6.4 0 Calma 8 Oeste 0 -- -- 83
2018-01-04 23:00:00 9.2 5 Oeste 16 Oeste 0 -- -- 69
2018-01-04 22:00:00 10.3 6 Oeste 23 Noroeste 0 -- -- 65
2018-01-04 21:00:00 10.6 10 Oeste 18 Oeste 0 -- -- 64
2018-01-04 20:00:00 10.3 6 Oeste 19 Noroeste 0 -- -- 65
2018-01-04 19:00:00 10.4 8 Oeste 22 Noroeste 0 -- -- 64
2018-01-04 18:00:00 10.7 16 Oeste 32 Noroeste 0 -- -- 65
2018-01-04 17:00:00 12.3 13 Noroeste 40 Noroeste 0 -- -- 61
2018-01-04 16:00:00 13 17 Noroeste 35 Noroeste 0 -- -- 59
2018-01-04 15:00:00 12.8 20 Noroeste 34 Noroeste 0 -- -- 60
2018-01-04 14:00:00 13 16 Noroeste 37 Oeste 0 -- -- 59
2018-01-04 13:00:00 13 16 Oeste 35 Noroeste 0 -- -- 62
2018-01-04 12:00:00 12.3 19 Oeste 36 Oeste 0 -- -- 63
2018-01-04 11:00:00 12.5 11 Oeste 29 Oeste 0 -- -- 64
2018-01-04 10:00:00 11.8 12 Oeste 35 Oeste 0 -- -- 71
2018-01-04 09:00:00 10.3 10 Oeste 34 Noroeste 0 -- -- 78
2018-01-04 08:00:00 9.9 22 Noroeste 39 Oeste 0 -- -- 78
2018-01-04 07:00:00 10.6 21 Noroeste 36 Oeste 0 -- -- 80
2018-01-04 06:00:00 10.9 13 Oeste 34 Noroeste 0 -- -- 79
2018-01-04 05:00:00 11.3 15 Noroeste 29 Noroeste 0 -- -- 78
2018-01-04 04:00:00 11.5 15 Noroeste 34 Noroeste 0 -- -- 77
2018-01-04 03:00:00 11.2 11 Noroeste 24 Oeste 0 -- -- 81
2018-01-04 02:00:00 11.4 12 Noroeste 31 Noroeste 0 -- -- 81
2018-01-04 01:00:00 11.5 11 Noroeste 21 Noroeste 0 -- -- 80
2018-01-04 00:00:00 11.9 18 Noroeste 34 Noroeste 0 -- -- 77
2018-01-03 23:00:00 11.9 17 Oeste 32 Oeste 0 -- -- 78
2018-01-03 22:00:00 12 19 Oeste 32 Noroeste 0 -- -- 77
2018-01-03 21:00:00 12.1 15 Oeste 37 Noroeste 0 -- -- 77
2018-01-03 20:00:00 12.7 16 Noroeste 36 Noroeste 0 -- -- 75
2018-01-03 19:00:00 12.4 18 Noroeste 31 Noroeste 0 -- -- 75
2018-01-03 18:00:00 12.6 12 Noroeste 28 Noroeste 0 -- -- 78
2018-01-03 17:00:00 13 12 Noroeste 29 Oeste 0 -- -- 75
2018-01-03 16:00:00 13.4 9 Noroeste 30 Oeste 0 -- -- 74
2018-01-03 15:00:00 13.4 14 Oeste 28 Oeste 0 -- -- 73
2018-01-03 14:00:00 13 15 Oeste 33 Noroeste 0 -- -- 76
2018-01-03 13:00:00 11.9 17 Oeste 31 Noroeste 0 -- -- 82
2018-01-03 12:00:00 11.6 11 Oeste 23 Oeste 0 -- -- 84
2018-01-03 11:00:00 11.2 7 Sudoeste 23 Oeste 0 -- -- 85
2018-01-03 10:00:00 11.1 13 Oeste 28 Oeste 0 -- -- 84
2018-01-03 09:00:00 11 15 Oeste 33 Oeste 0.2 -- -- 83
2018-01-03 08:00:00 10.1 18 Oeste 46 Oeste 0 -- -- 89
2018-01-03 07:00:00 11.3 22 Oeste 39 Oeste 0 -- -- 80
2018-01-03 06:00:00 11.5 23 Oeste 44 Oeste 0 -- -- 80
2018-01-03 05:00:00 11.6 22 Oeste 37 Oeste 0 -- -- 81
2018-01-03 04:00:00 11.4 19 Oeste 33 Oeste 0 -- -- 82
2018-01-03 03:00:00 11.1 14 Noroeste 34 Oeste 0 -- -- 85
2018-01-03 02:00:00 10.6 12 Noroeste 31 Noroeste 0 -- -- 88
2018-01-03 01:00:00 10.7 21 Noroeste 40 Oeste 0 -- -- 87
2018-01-03 00:00:00 10.9 9 Oeste 39 Noroeste 0 -- -- 86
2018-01-02 23:00:00 10.7 21 Noroeste 42 Oeste 0 -- -- 86
2018-01-02 22:00:00 10.6 18 Noroeste 41 Oeste 0 -- -- 87
2018-01-02 21:00:00 9.9 16 Noroeste 33 Noroeste 0.2 -- -- 92
2018-01-02 20:00:00 10.1 17 Noroeste 32 Noroeste 0 -- -- 90
2018-01-02 19:00:00 9.6 8 Noroeste 18 Noroeste 0.2 -- -- 93
2018-01-02 18:00:00 9.7 10 Noroeste 22 Noroeste 0 -- -- 89
2018-01-02 17:00:00 9.7 11 Noroeste 27 Oeste 0.2 -- -- 89
2018-01-02 16:00:00 9.6 15 Oeste 28 Oeste 0 -- -- 88
2018-01-02 15:00:00 11.8 15 Noroeste 29 Oeste 0 -- -- 69
2018-01-02 14:00:00 11.4 17 Noroeste 32 Oeste 0 -- -- 67
2018-01-02 13:00:00 11.2 21 Noroeste 43 Oeste 0 -- -- 67
2018-01-02 12:00:00 10.6 18 Noroeste 36 Oeste 0 -- -- 66
2018-01-02 11:00:00 8.9 22 Noroeste 43 Noroeste 0 -- -- 69
2018-01-02 10:00:00 8.1 26 Noroeste 42 Oeste 0 -- -- 72
2018-01-02 09:00:00 8.1 27 Noroeste 52 Noroeste 0 -- -- 71
2018-01-02 08:00:00 8 31 Noroeste 51 Noroeste 0 -- -- 71
2018-01-02 07:00:00 7.8 19 Noroeste 31 Noroeste 0 -- -- 72
2018-01-02 06:00:00 7.8 15 Noroeste 36 Noroeste 0 -- -- 70
2018-01-02 05:00:00 7.5 12 Oeste 25 Oeste 0 -- -- 70
2018-01-02 04:00:00 7.3 6 Sudoeste 26 Noroeste 0 -- -- 71
2018-01-02 03:00:00 7.3 5 Sudeste 22 Nordeste 0 -- -- 71
2018-01-02 02:00:00 7.3 4 Oeste 16 Oeste 0 -- -- 72
2018-01-02 01:00:00 7.7 7 Oeste 18 Oeste 0 -- -- 71
2018-01-02 00:00:00 8.1 9 Noroeste 25 Sudoeste 0 -- -- 73
2018-01-01 23:00:00 8.3 3 Este 18 Este 0 -- -- 73
2018-01-01 22:00:00 8.5 4 Oeste 31 Oeste 0 -- -- 74
2018-01-01 21:00:00 8.9 13 Oeste 42 Oeste 0 -- -- 75
2018-01-01 20:00:00 8.8 17 Oeste 48 Oeste 0 -- -- 76
2018-01-01 19:00:00 8.6 20 Oeste 46 Noroeste 0 -- -- 77
2018-01-01 18:00:00 8.1 15 Oeste 43 Oeste 0 -- -- 79
2018-01-01 17:00:00 9.1 14 Oeste 38 Oeste 0 -- -- 71
2018-01-01 16:00:00 9 15 Oeste 35 Noroeste 0 -- -- 70
2018-01-01 15:00:00 9.4 9 Oeste 28 Este 0 -- -- 63
2018-01-01 14:00:00 9 9 Sudoeste 24 Sudoeste 0 -- -- 56
2018-01-01 13:00:00 8.1 5 Oeste 26 Noroeste 0 -- -- 51
2018-01-01 12:00:00 7.9 10 Oeste 24 Oeste 0 -- -- 47
2018-01-01 11:00:00 8.3 10 Oeste 29 Oeste 0 -- -- 39
2018-01-01 10:00:00 6.9 15 Noroeste 31 Noroeste 0 -- -- 38
2018-01-01 09:00:00 4.8 12 Noroeste 33 Oeste 0 -- -- 50
2018-01-01 08:00:00 4.9 20 Noroeste 40 Noroeste 0 -- -- 60
2018-01-01 07:00:00 4.4 20 Noroeste 40 Noroeste 0 -- -- 61
2018-01-01 06:00:00 4.8 24 Noroeste 42 Noroeste 0 -- -- 60
2018-01-01 05:00:00 4.4 18 Oeste 29 Oeste 0 -- -- 64
2018-01-01 04:00:00 4.2 6 Oeste 21 Oeste 0 -- -- 68
2018-01-01 03:00:00 3.8 4 Sudoeste 22 Noroeste 0 -- -- 74
2018-01-01 02:00:00 4.3 8 Oeste 31 Noroeste 0 -- -- 75
2018-01-01 01:00:00 4.9 16 Noroeste 39 Oeste 0 -- -- 73
2018-01-01 00:00:00 4.8 17 Noroeste 41 Noroeste 0 -- -- 74
2017-12-31 23:00:00 5 17 Noroeste 43 Noroeste 0 -- -- 71
2017-12-31 22:00:00 5.2 10 Oeste 46 Noroeste 0 -- -- 74
2017-12-31 21:00:00 5.8 25 Noroeste 51 Oeste 0.2 -- -- 70
2017-12-31 20:00:00 6 24 Noroeste 53 Noroeste 0.4 -- -- 79
2017-12-31 19:00:00 6.1 16 Noroeste 39 Oeste 0.2 -- -- 81
2017-12-31 18:00:00 7.4 17 Noroeste 45 Noroeste 0.6 -- -- 76
2017-12-31 17:00:00 8 6 Sudoeste 22 Sudoeste 0 -- -- 89
2017-12-31 16:00:00 9.2 9 Sudoeste 27 Sur 0 -- -- 79
2017-12-31 15:00:00 11.6 9 Sudoeste 21 Sudoeste 0 -- -- 67
2017-12-31 14:00:00 8.7 7 Sudoeste 18 Sudoeste 0 -- -- 78
2017-12-31 13:00:00 8.4 3 Sudoeste 12 Sur 0 -- -- 89
2017-12-31 12:00:00 7.2 4 Sur 10 Sur 0 -- -- 90
2017-12-31 11:00:00 7 2 Sudeste 5 Sur 0 -- -- 93
2017-12-31 10:00:00 6.2 0 Calma 4 Noroeste 0 -- -- 96
2017-12-31 09:00:00 6 2 Sudoeste 6 Sur 0 -- -- 96
2017-12-31 08:00:00 5.7 0 Calma 4 Oeste 0 -- -- 96
2017-12-31 07:00:00 5.8 0 Calma 4 Oeste 0 -- -- 96
2017-12-31 06:00:00 6 0 Calma 5 Norte 0 -- -- 96
2017-12-31 05:00:00 5.4 0 Calma 4 Sudoeste 0 -- -- 96
2017-12-31 04:00:00 4.9 0 Calma 3 Este 0 -- -- 96
2017-12-31 03:00:00 4.3 0 Calma 2 Noroeste 0 -- -- 97
2017-12-31 02:00:00 3.7 0 Calma 3 Norte 0 -- -- 96
2017-12-31 01:00:00 4.2 0 Calma 4 Norte 0 -- -- 95